Time;durP1;ratioP1;P1;durP2;ratioP2;P2;SDS_P1;SDS_P2;PMS_P1;PMS_P2;Temp;Humidity;BMP_temperature;BMP_pressure;BME280_temperature;BME280_humidity;BME280_pressure;Samples;Min_cycle;Max_cycle;Signal;HPM_P1;HPM_P2
2023/10/14 00:01:51;;;;;;;1.33;0.70;;;22.60;40.20;;;;;;5060700;28;20186;-75
2023/10/14 00:04:21;;;;;;;1.93;0.73;;;22.60;39.90;;;;;;5074356;28;20167;-69
2023/10/14 00:06:49;;;;;;;1.77;0.90;;;22.70;39.70;;;;;;5076322;28;20199;-78
2023/10/14 00:09:16;;;;;;;2.73;1.77;;;22.80;40.10;;;;;;5072952;28;20175;-72
2023/10/14 00:11:46;;;;;;;1.37;1.03;;;22.80;39.90;;;;;;5074620;28;20213;-69
2023/10/14 00:14:18;;;;;;;3.23;0.90;;;23.10;39.50;;;;;;5057027;28;20544;-71
2023/10/14 00:16:49;;;;;;;1.63;0.93;;;23.10;39.20;;;;;;5072976;28;20179;-67
2023/10/14 00:19:24;;;;;;;4.27;0.70;;;23.20;39.10;;;;;;5070457;28;20174;-68
2023/10/14 00:21:51;;;;;;;3.03;0.70;;;23.30;38.10;;;;;;5069089;28;20201;-74
2023/10/14 00:24:26;;;;;;;2.30;0.70;;;23.30;38.20;;;;;;5074499;28;20190;-69
2023/10/14 00:26:54;;;;;;;3.47;2.03;;;23.10;38.10;;;;;;5062317;28;20206;-68
2023/10/14 00:29:22;;;;;;;1.87;1.00;;;23.10;38.20;;;;;;5075834;28;20515;-71
2023/10/14 00:31:52;;;;;;;8.20;0.70;;;23.40;37.70;;;;;;5075287;28;20172;-68
2023/10/14 00:34:25;;;;;;;2.40;0.80;;;23.30;37.60;;;;;;5075690;28;20313;-69
2023/10/14 00:36:59;;;;;;;5.50;0.80;;;23.10;37.60;;;;;;5075333;28;20229;-67
2023/10/14 00:39:31;;;;;;;0.80;0.50;;;23.30;38.00;;;;;;5075391;28;20262;-70
2023/10/14 00:42:02;;;;;;;2.40;0.80;;;23.60;36.80;;;;;;5074177;28;20238;-71
2023/10/14 00:44:29;;;;;;;4.97;1.90;;;23.80;37.10;;;;;;5074136;28;20236;-70
2023/10/14 00:46:57;;;;;;;2.47;1.40;;;23.90;37.10;;;;;;5073438;28;20215;-70
2023/10/14 00:49:34;;;;;;;1.90;0.60;;;24.20;36.40;;;;;;5074646;28;20221;-73
2023/10/14 00:52:11;;;;;;;3.97;0.93;;;24.30;36.30;;;;;;5075453;28;20205;-69
2023/10/14 00:57:37;;;;;;;1.47;0.80;;;24.80;35.50;;;;;;5074232;28;20198;-67
2023/10/14 00:59:58;;;;;;;3.10;0.50;;;24.70;35.70;;;;;;5073103;28;20179;-70
2023/10/14 01:02:33;;;;;;;2.70;0.60;;;24.80;35.40;;;;;;5056329;28;20195;-72
2023/10/14 01:05:08;;;;;;;1.23;0.50;;;24.80;35.40;;;;;;5073398;28;20252;-68
2023/10/14 01:07:38;;;;;;;1.27;0.57;;;24.90;35.10;;;;;;5074804;28;20233;-67
2023/10/14 01:10:10;;;;;;;0.50;0.50;;;24.90;34.50;;;;;;5075050;28;20624;-72
2023/10/14 01:12:45;;;;;;;0.50;0.43;;;24.90;33.70;;;;;;5074955;28;20258;-69
2023/10/14 01:15:21;;;;;;;1.37;0.90;;;24.90;32.60;;;;;;5074825;28;20273;-67
2023/10/14 01:17:54;;;;;;;3.67;0.60;;;24.80;33.00;;;;;;5066930;28;20250;-67
2023/10/14 01:23:06;;;;;;;2.33;0.53;;;25.10;33.10;;;;;;5074785;28;20276;-67
2023/10/14 01:25:41;;;;;;;3.70;0.70;;;25.20;32.80;;;;;;5072865;28;20637;-69
2023/10/14 01:28:12;;;;;;;1.93;0.60;;;25.30;32.70;;;;;;5074747;28;20210;-67
2023/10/14 01:31:40;;;;;;;0.90;0.70;;;25.20;33.30;;;;;;5074859;28;20186;-68
2023/10/14 01:34:10;;;;;;;0.63;0.57;;;25.30;32.80;;;;;;5073486;28;20640;-67
2023/10/14 01:36:41;;;;;;;1.87;0.60;;;25.50;32.90;;;;;;5074348;28;20179;-67
2023/10/14 01:39:20;;;;;;;2.40;0.70;;;25.80;32.60;;;;;;5073334;28;20171;-66
2023/10/14 01:41:53;;;;;;;0.80;0.67;;;26.10;32.10;;;;;;5072427;28;20610;-66
2023/10/14 01:44:22;;;;;;;0.60;0.60;;;26.30;31.40;;;;;;5071006;28;20247;-69
2023/10/14 01:46:54;;;;;;;1.77;0.80;;;26.30;31.80;;;;;;5074288;28;20214;-67
2023/10/14 01:49:23;;;;;;;0.53;0.53;;;26.30;31.80;;;;;;5073733;28;20652;-67
2023/10/14 01:51:50;;;;;;;3.27;0.63;;;26.30;32.00;;;;;;5072734;28;20701;-68
2023/10/14 01:54:18;;;;;;;0.93;0.53;;;26.60;31.50;;;;;;5073981;28;20171;-69
2023/10/14 01:56:46;;;;;;;1.80;0.70;;;26.60;31.50;;;;;;5074187;28;20203;-67
2023/10/14 01:59:16;;;;;;;1.67;0.83;;;26.60;31.60;;;;;;5071017;28;20172;-68
2023/10/14 02:01:43;;;;;;;1.53;0.90;;;27.10;31.80;;;;;;5072728;28;20191;-67
2023/10/14 02:04:14;;;;;;;3.00;0.80;;;26.90;31.10;;;;;;5071821;28;20248;-66
2023/10/14 02:06:46;;;;;;;0.60;0.60;;;26.80;31.60;;;;;;5055374;28;20609;-69
2023/10/14 02:09:16;;;;;;;1.87;1.50;;;27.00;31.80;;;;;;5073522;28;20179;-67
2023/10/14 02:11:47;;;;;;;2.17;1.00;;;27.40;31.70;;;;;;5072457;28;20719;-70
2023/10/14 02:14:18;;;;;;;0.90;0.70;;;27.60;31.10;;;;;;5054758;28;20191;-67
2023/10/14 02:16:46;;;;;;;4.20;1.10;;;27.50;31.30;;;;;;5072428;28;20653;-68
2023/10/14 02:22:02;;;;;;;1.40;0.90;;;27.60;31.40;;;;;;5072226;28;20187;-68
2023/10/14 02:24:30;;;;;;;1.93;1.17;;;27.70;31.10;;;;;;5070773;28;20171;-69
2023/10/14 02:26:57;;;;;;;1.90;1.00;;;27.70;31.50;;;;;;5073727;28;20661;-69
2023/10/14 02:29:25;;;;;;;1.60;0.80;;;27.80;31.20;;;;;;5073150;28;20184;-72
2023/10/14 02:31:52;;;;;;;3.23;0.93;;;27.90;30.90;;;;;;5070712;28;20229;-71
2023/10/14 02:34:20;;;;;;;2.70;1.30;;;27.90;31.10;;;;;;5073035;28;20249;-68
2023/10/14 02:36:50;;;;;;;1.83;1.20;;;27.90;31.00;;;;;;5070604;28;20191;-69
2023/10/14 02:39:25;;;;;;;1.20;0.70;;;28.20;31.30;;;;;;5051300;28;20209;-70
2023/10/14 02:41:59;;;;;;;1.67;1.00;;;28.50;30.60;;;;;;5068242;28;20197;-71
2023/10/14 02:44:32;;;;;;;2.87;1.07;;;28.60;30.60;;;;;;5056769;28;20750;-68
2023/10/14 02:47:08;;;;;;;3.33;0.80;;;28.60;30.50;;;;;;5070945;28;20600;-69
2023/10/14 02:49:39;;;;;;;0.90;0.60;;;28.80;30.60;;;;;;5070760;28;20175;-68
2023/10/14 02:52:11;;;;;;;3.23;0.80;;;29.20;29.30;;;;;;5073029;28;20194;-71
2023/10/14 02:54:45;;;;;;;2.17;0.93;;;29.10;29.50;;;;;;5072867;28;20203;-69
2023/10/14 02:57:13;;;;;;;1.50;0.70;;;29.30;29.30;;;;;;5072861;28;20179;-72
2023/10/14 03:02:25;;;;;;;2.10;0.80;;;29.50;29.40;;;;;;5072802;28;20225;-68
2023/10/14 03:07:36;;;;;;;2.03;0.90;;;29.60;28.70;;;;;;5072782;28;20348;-72
2023/10/14 03:10:12;;;;;;;1.30;0.70;;;30.00;28.40;;;;;;5071260;28;20171;-69
2023/10/14 03:12:44;;;;;;;0.75;0.75;;;29.90;28.60;;;;;;5068630;28;20702;-65
2023/10/14 03:15:19;;;;;;;1.33;0.80;;;29.90;27.40;;;;;;5070141;28;20671;-69
2023/10/14 03:17:53;;;;;;;1.15;0.70;;;30.10;28.10;;;;;;5052270;28;20182;-71
2023/10/14 03:23:03;;;;;;;1.15;0.63;;;30.30;27.30;;;;;;5067759;28;20257;-67
2023/10/14 03:25:35;;;;;;;0.98;0.90;;;30.60;27.10;;;;;;5067337;28;20203;-68
2023/10/14 03:28:12;;;;;;;1.88;0.70;;;30.70;27.70;;;;;;5069461;28;20222;-73
2023/10/14 03:30:46;;;;;;;0.70;0.70;;;30.30;27.40;;;;;;5056532;28;20582;-68
2023/10/14 03:33:19;;;;;;;3.97;1.13;;;30.40;27.50;;;;;;5064440;28;20185;-68
2023/10/14 03:36:05;;;;;;;1.55;0.80;;;30.60;27.40;;;;;;5070502;28;20687;-70
2023/10/14 03:41:03;;;;;;;1.23;0.70;;;31.10;27.20;;;;;;5071226;28;20183;-73
2023/10/14 03:43:42;;;;;;;2.13;0.80;;;31.30;26.40;;;;;;5070174;28;20632;-68
2023/10/14 03:46:14;;;;;;;1.65;0.80;;;31.40;26.40;;;;;;5070562;28;20182;-72
2023/10/14 03:48:48;;;;;;;2.78;0.70;;;31.30;26.70;;;;;;5046490;28;20197;-68
2023/10/14 03:51:24;;;;;;;1.70;0.80;;;31.60;24.70;;;;;;5069900;28;20220;-69
2023/10/14 03:53:53;;;;;;;0.60;0.57;;;31.70;24.70;;;;;;5068933;28;20182;-73
2023/10/14 03:56:27;;;;;;;1.77;0.70;;;31.70;24.90;;;;;;5070219;28;20247;-69
2023/10/14 03:58:55;;;;;;;3.60;0.73;;;32.30;24.90;;;;;;5070021;28;20182;-68
2023/10/14 04:01:28;;;;;;;2.33;0.77;;;32.30;23.80;;;;;;5066145;28;20275;-68
2023/10/14 04:03:56;;;;;;;1.67;0.80;;;32.40;23.70;;;;;;5070493;28;20633;-69
2023/10/14 04:06:25;;;;;;;0.80;0.70;;;32.80;23.60;;;;;;5072269;28;20171;-69
2023/10/14 04:08:54;;;;;;;0.80;0.70;;;32.70;22.90;;;;;;5072066;28;20212;-68
2023/10/14 04:11:28;;;;;;;1.35;0.80;;;32.50;23.20;;;;;;5070858;28;20183;-71
2023/10/14 04:14:02;;;;;;;0.63;0.63;;;32.40;21.60;;;;;;5072093;28;20271;-72
2023/10/14 04:19:27;;;;;;;0.70;0.70;;;32.40;21.40;;;;;;5052264;28;20172;-69
2023/10/14 04:22:03;;;;;;;1.63;0.82;;;32.30;21.80;;;;;;5071403;28;20329;-67
2023/10/14 04:29:57;;;;;;;1.52;1.00;;;33.30;21.20;;;;;;5072727;28;20607;-76
2023/10/14 04:32:42;;;;;;;0.80;0.73;;;32.80;21.00;;;;;;5054588;28;20544;-78
2023/10/14 04:35:12;;;;;;;1.10;0.95;;;32.70;20.80;;;;;;5072419;28;21707;-72
2023/10/14 04:37:52;;;;;;;1.00;0.90;;;32.30;21.30;;;;;;5072340;28;20186;-75
2023/10/14 04:43:19;;;;;;;1.13;0.90;;;33.90;20.00;;;;;;5074705;28;20262;-75
2023/10/14 04:45:55;;;;;;;3.42;0.93;;;33.40;20.10;;;;;;5056529;28;20193;-70
2023/10/14 04:48:35;;;;;;;1.65;0.88;;;32.60;21.00;;;;;;5070170;28;20689;-76
2023/10/14 04:51:08;;;;;;;1.25;0.90;;;32.50;21.10;;;;;;5072021;28;20175;-73
2023/10/14 04:53:42;;;;;;;2.22;1.10;;;32.90;21.10;;;;;;5073756;28;20184;-70
2023/10/14 04:56:29;;;;;;;2.33;0.88;;;33.50;20.90;;;;;;5074582;28;20201;-69
2023/10/14 04:58:58;;;;;;;1.67;0.95;;;33.50;21.00;;;;;;5063914;28;20191;-71
2023/10/14 05:01:25;;;;;;;2.38;0.80;;;33.50;20.50;;;;;;5075622;28;20175;-73
2023/10/14 05:03:57;;;;;;;2.08;0.90;;;32.90;21.30;;;;;;5075045;28;20199;-66
2023/10/14 05:06:46;;;;;;;1.45;1.17;;;32.30;21.30;;;;;;5074919;28;20171;-68
2023/10/14 05:09:25;;;;;;;1.33;0.90;;;32.70;21.60;;;;;;5073643;28;20233;-68
2023/10/14 05:11:53;;;;;;;1.67;0.95;;;33.80;20.90;;;;;;5045441;28;20167;-70
2023/10/14 05:14:33;;;;;;;1.10;1.00;;;33.10;21.00;;;;;;5073910;28;20179;-73
2023/10/14 05:17:25;;;;;;;1.20;1.10;;;33.20;20.90;;;;;;5057343;28;20540;-71
2023/10/14 05:19:48;;;;;;;1.77;1.20;;;33.40;20.60;;;;;;5060619;28;20289;-73
2023/10/14 05:22:19;;;;;;;1.13;1.00;;;33.00;20.60;;;;;;5073987;28;20672;-69
2023/10/14 05:24:52;;;;;;;1.95;1.05;;;32.70;20.50;;;;;;5063056;28;20183;-74
2023/10/14 05:27:35;;;;;;;2.15;1.10;;;31.80;21.70;;;;;;5074169;28;20199;-68
2023/10/14 05:30:06;;;;;;;1.55;1.00;;;31.50;21.30;;;;;;5074961;28;20179;-68
2023/10/14 05:32:36;;;;;;;1.10;1.00;;;31.30;21.70;;;;;;5074995;28;20535;-74
2023/10/14 05:35:09;;;;;;;1.95;0.90;;;31.50;21.50;;;;;;5074042;28;20183;-68
2023/10/14 05:37:41;;;;;;;2.00;1.00;;;31.30;21.30;;;;;;5073330;28;20209;-71
2023/10/14 05:40:15;;;;;;;1.80;0.95;;;31.70;20.90;;;;;;5066995;28;20582;-70
2023/10/14 05:42:43;;;;;;;1.17;0.90;;;31.70;20.90;;;;;;5074208;28;20642;-70
2023/10/14 05:45:11;;;;;;;0.88;0.73;;;31.70;21.10;;;;;;5074333;28;20190;-74
2023/10/14 05:47:42;;;;;;;2.50;1.00;;;31.50;21.20;;;;;;5072593;28;20199;-71
2023/10/14 05:50:14;;;;;;;1.17;0.90;;;30.60;22.20;;;;;;5071668;28;20190;-73
2023/10/14 05:52:45;;;;;;;2.03;1.20;;;29.70;22.80;;;;;;5072293;28;20461;-73
2023/10/14 05:55:19;;;;;;;1.33;1.02;;;29.50;23.20;;;;;;5054951;28;20183;-68
2023/10/14 05:57:47;;;;;;;2.17;1.10;;;28.90;23.70;;;;;;5072774;28;20710;-69
2023/10/14 06:00:21;;;;;;;1.10;0.70;;;28.80;24.30;;;;;;5070101;28;20183;-70
2023/10/14 06:02:51;;;;;;;1.30;0.90;;;28.60;24.30;;;;;;5069289;28;20612;-67
2023/10/14 06:05:24;;;;;;;1.20;1.00;;;28.40;24.60;;;;;;5066732;28;20186;-73
2023/10/14 06:08:05;;;;;;;2.00;1.20;;;28.50;24.80;;;;;;5069914;28;20268;-69
2023/10/14 06:10:36;;;;;;;0.80;0.80;;;28.40;25.30;;;;;;5069230;28;20183;-70
2023/10/14 06:13:08;;;;;;;1.00;0.90;;;28.20;25.20;;;;;;5070077;28;20190;-68
2023/10/14 06:15:40;;;;;;;1.17;0.90;;;28.10;25.60;;;;;;5065044;28;20187;-72
2023/10/14 06:18:13;;;;;;;1.77;1.00;;;28.00;25.60;;;;;;5070218;28;20270;-70
2023/10/14 06:20:42;;;;;;;3.17;1.20;;;28.00;25.40;;;;;;5068842;28;20231;-70
2023/10/14 06:23:11;;;;;;;1.83;1.20;;;28.10;25.50;;;;;;5069977;28;20194;-71
2023/10/14 06:25:38;;;;;;;2.20;1.10;;;28.20;25.70;;;;;;5068193;28;20195;-69
2023/10/14 06:28:10;;;;;;;1.30;0.93;;;28.10;25.40;;;;;;5070515;28;20309;-70
2023/10/14 06:30:37;;;;;;;1.10;1.00;;;27.90;25.60;;;;;;5070580;28;20183;-71
2023/10/14 06:33:05;;;;;;;1.50;0.80;;;27.90;25.80;;;;;;5069350;28;20203;-72
2023/10/14 06:35:33;;;;;;;3.73;1.10;;;27.80;26.40;;;;;;5069004;28;20187;-68
2023/10/14 06:38:04;;;;;;;0.93;0.83;;;27.60;26.80;;;;;;5070959;28;20532;-69
2023/10/14 06:40:42;;;;;;;1.80;1.20;;;27.30;27.10;;;;;;5069958;28;20191;-70
2023/10/14 06:43:09;;;;;;;1.63;1.00;;;27.30;27.30;;;;;;5067511;28;20225;-69
2023/10/14 06:45:38;;;;;;;2.03;1.20;;;27.30;27.50;;;;;;5069859;28;20183;-70
2023/10/14 06:48:12;;;;;;;2.63;0.90;;;27.30;27.50;;;;;;5070241;28;20291;-78
2023/10/14 06:50:47;;;;;;;1.17;1.00;;;27.10;27.70;;;;;;5070663;28;20182;-68
2023/10/14 06:53:17;;;;;;;2.17;1.03;;;27.00;27.90;;;;;;5067992;28;20183;-67
2023/10/14 06:55:45;;;;;;;2.20;1.03;;;26.80;28.20;;;;;;5069517;28;20210;-68
2023/10/14 06:58:19;;;;;;;1.13;1.00;;;26.90;28.30;;;;;;5050866;28;20207;-69
2023/10/14 07:00:48;;;;;;;1.97;1.17;;;26.80;28.50;;;;;;5070295;28;20718;-70
2023/10/14 07:03:16;;;;;;;2.37;1.30;;;26.80;28.80;;;;;;5069971;28;20222;-71
2023/10/14 07:05:48;;;;;;;0.97;0.87;;;26.60;28.80;;;;;;5068471;28;20171;-71
2023/10/14 07:08:19;;;;;;;4.40;1.27;;;26.60;28.90;;;;;;5053612;28;20689;-67
2023/10/14 07:10:47;;;;;;;1.30;1.20;;;26.50;29.30;;;;;;5069915;28;20191;-73
2023/10/14 07:13:17;;;;;;;2.23;1.20;;;26.40;29.40;;;;;;5069046;28;20252;-69
2023/10/14 07:15:44;;;;;;;1.27;0.90;;;26.30;29.70;;;;;;5071238;28;20241;-71
2023/10/14 07:18:14;;;;;;;2.53;1.23;;;26.30;29.60;;;;;;5072016;28;20244;-72
2023/10/14 07:20:43;;;;;;;1.03;0.80;;;26.30;29.60;;;;;;5060546;28;20215;-69
2023/10/14 07:23:10;;;;;;;2.03;0.93;;;26.20;29.80;;;;;;5070860;28;20189;-69
2023/10/14 07:25:42;;;;;;;2.73;1.10;;;26.20;29.90;;;;;;5071830;28;20718;-69
2023/10/14 07:28:13;;;;;;;4.23;1.07;;;26.20;30.20;;;;;;5071538;28;20691;-67
2023/10/14 07:30:51;;;;;;;1.47;1.27;;;26.10;30.00;;;;;;5065562;28;20172;-69
2023/10/14 07:33:19;;;;;;;1.70;0.90;;;26.10;30.00;;;;;;5065565;28;20183;-72
2023/10/14 07:35:47;;;;;;;4.47;1.20;;;26.00;30.30;;;;;;5071397;28;20190;-69
2023/10/14 07:38:14;;;;;;;1.03;0.90;;;26.10;30.20;;;;;;5071976;28;20542;-70
2023/10/14 07:40:42;;;;;;;2.47;1.50;;;26.20;29.80;;;;;;5070144;28;20258;-71
2023/10/14 07:43:12;;;;;;;1.50;1.13;;;26.10;29.30;;;;;;5067925;28;20195;-72
2023/10/14 07:45:44;;;;;;;1.33;1.20;;;26.10;28.90;;;;;;5068395;28;20183;-70
2023/10/14 07:48:13;;;;;;;1.73;1.30;;;26.00;29.10;;;;;;5066140;28;20253;-73
2023/10/14 07:50:42;;;;;;;2.47;1.17;;;26.00;29.00;;;;;;5053254;28;20584;-74
2023/10/14 07:53:13;;;;;;;3.23;1.40;;;26.00;29.20;;;;;;5064286;28;20703;-70
2023/10/14 07:55:47;;;;;;;2.87;1.23;;;25.90;29.40;;;;;;5068609;28;20175;-73
2023/10/14 07:58:16;;;;;;;1.57;1.10;;;25.90;29.40;;;;;;5068237;28;20595;-70
2023/10/14 08:00:51;;;;;;;4.00;1.20;;;25.80;29.50;;;;;;5067407;28;20191;-68
2023/10/14 08:03:22;;;;;;;2.73;1.20;;;25.70;29.70;;;;;;5062743;28;20267;-67
2023/10/14 08:05:52;;;;;;;5.70;1.40;;;25.50;30.00;;;;;;5067833;28;20175;-67
2023/10/14 08:08:20;;;;;;;2.10;1.30;;;25.50;30.10;;;;;;5068359;28;20245;-71
2023/10/14 08:10:50;;;;;;;1.43;1.10;;;25.40;30.10;;;;;;5067270;28;20179;-72
2023/10/14 08:13:22;;;;;;;1.60;1.20;;;25.40;30.20;;;;;;5070080;28;20241;-67
2023/10/14 08:15:54;;;;;;;3.67;1.20;;;25.30;30.30;;;;;;5070969;28;20245;-67
2023/10/14 08:18:23;;;;;;;1.83;1.20;;;25.30;30.20;;;;;;5070629;28;20237;-69
2023/10/14 08:20:55;;;;;;;1.27;1.17;;;25.20;30.50;;;;;;5073383;28;20218;-70
2023/10/14 08:23:23;;;;;;;1.47;1.03;;;25.20;30.60;;;;;;5072493;28;20188;-67
2023/10/14 08:25:54;;;;;;;2.57;1.53;;;25.10;31.00;;;;;;5054796;28;20706;-67
2023/10/14 08:28:27;;;;;;;1.30;1.13;;;25.00;30.70;;;;;;5074971;28;20202;-67
2023/10/14 08:30:57;;;;;;;1.97;1.27;;;25.00;30.70;;;;;;5051940;28;20296;-70
2023/10/14 08:33:28;;;;;;;2.87;1.43;;;24.90;30.60;;;;;;5069691;28;20189;-68
2023/10/14 08:35:56;;;;;;;2.60;1.60;;;24.90;30.80;;;;;;5073929;28;20191;-68
2023/10/14 08:38:27;;;;;;;1.67;1.40;;;24.80;30.90;;;;;;5070346;28;20187;-70
2023/10/14 08:40:55;;;;;;;5.10;1.63;;;24.80;31.00;;;;;;5074632;28;20171;-67
2023/10/14 08:43:28;;;;;;;1.90;1.40;;;24.80;31.10;;;;;;5074951;28;20332;-69
2023/10/14 08:45:59;;;;;;;2.13;1.40;;;24.70;31.20;;;;;;5068750;28;20214;-73
2023/10/14 08:48:30;;;;;;;1.70;1.23;;;24.70;31.50;;;;;;5067316;28;20766;-72
2023/10/14 08:50:58;;;;;;;1.90;1.27;;;24.60;31.80;;;;;;5073101;28;20179;-68
2023/10/14 08:53:30;;;;;;;2.37;1.50;;;24.60;32.00;;;;;;5075341;28;20183;-69
2023/10/14 08:55:58;;;;;;;1.60;1.17;;;24.60;32.20;;;;;;5075144;28;20171;-71
2023/10/14 08:58:26;;;;;;;1.47;1.37;;;24.60;32.30;;;;;;5074305;28;20552;-70
2023/10/14 09:00:54;;;;;;;4.27;1.53;;;24.50;32.60;;;;;;5074910;28;20191;-69
2023/10/14 09:03:24;;;;;;;5.27;1.70;;;24.40;32.90;;;;;;5071081;28;20178;-71
2023/10/14 09:05:51;;;;;;;2.03;1.47;;;24.30;33.20;;;;;;5075254;28;20218;-70
2023/10/14 09:08:20;;;;;;;2.77;1.47;;;24.30;33.70;;;;;;5073488;28;20264;-69
2023/10/14 09:10:49;;;;;;;2.57;1.63;;;24.20;33.90;;;;;;5074815;28;20192;-67
2023/10/14 09:13:20;;;;;;;1.60;1.20;;;24.20;34.00;;;;;;5074984;28;20619;-68
2023/10/14 09:15:49;;;;;;;2.03;1.43;;;24.10;34.00;;;;;;5074819;28;20171;-72
2023/10/14 09:18:19;;;;;;;3.20;1.17;;;24.20;34.10;;;;;;5075612;28;20198;-68
2023/10/14 09:20:54;;;;;;;2.90;1.77;;;24.10;34.30;;;;;;5057002;28;20223;-70
2023/10/14 09:23:34;;;;;;;1.57;1.47;;;24.00;34.40;;;;;;5073780;28;20197;-69
2023/10/14 09:26:04;;;;;;;2.47;1.57;;;24.00;34.40;;;;;;5072419;28;20219;-69
2023/10/14 09:28:33;;;;;;;2.77;1.60;;;23.90;34.60;;;;;;5074263;28;20261;-70
2023/10/14 09:31:04;;;;;;;2.03;1.70;;;23.80;34.80;;;;;;5075321;28;20180;-69
2023/10/14 09:33:37;;;;;;;2.97;1.77;;;23.70;34.90;;;;;;5073757;28;20198;-70
2023/10/14 09:36:11;;;;;;;1.60;1.40;;;23.70;35.20;;;;;;5073101;28;20485;-71
2023/10/14 09:38:40;;;;;;;1.83;1.57;;;23.70;35.20;;;;;;5075680;28;20166;-75
2023/10/14 09:41:10;;;;;;;1.83;1.50;;;23.60;35.60;;;;;;5056116;28;20226;-75
2023/10/14 09:43:47;;;;;;;1.70;1.60;;;23.50;35.60;;;;;;5064486;28;20190;-74
2023/10/14 09:46:17;;;;;;;3.03;1.97;;;23.40;35.80;;;;;;5070703;28;20609;-75
2023/10/14 09:48:45;;;;;;;2.27;1.83;;;23.30;36.10;;;;;;5073856;28;20267;-73
2023/10/14 09:51:17;;;;;;;5.83;2.03;;;23.30;36.40;;;;;;5074120;28;20215;-74
2023/10/14 09:53:50;;;;;;;4.47;2.27;;;23.30;36.50;;;;;;5072039;28;20191;-70
2023/10/14 09:56:19;;;;;;;2.37;2.10;;;23.30;36.40;;;;;;5074601;28;20208;-73
2023/10/14 09:58:47;;;;;;;4.80;2.63;;;23.20;36.50;;;;;;5072940;28;20721;-71
2023/10/14 10:01:19;;;;;;;3.23;2.30;;;23.20;36.60;;;;;;5073823;28;20178;-71
2023/10/14 10:03:57;;;;;;;4.40;2.00;;;23.10;37.00;;;;;;5073298;28;20184;-73
2023/10/14 10:06:49;;;;;;;4.07;2.20;;;23.00;37.20;;;;;;5072598;28;20183;-72
2023/10/14 10:09:34;;;;;;;4.43;2.13;;;22.90;37.40;;;;;;5073389;28;20195;-72
2023/10/14 10:12:09;;;;;;;2.30;1.97;;;22.90;37.00;;;;;;5072708;28;20637;-69
2023/10/14 10:14:43;;;;;;;4.33;1.90;;;22.80;37.20;;;;;;5073999;28;20182;-68
2023/10/14 10:17:15;;;;;;;4.20;2.17;;;22.80;37.00;;;;;;5065638;28;20183;-68
2023/10/14 10:20:10;;;;;;;4.47;2.47;;;22.80;36.70;;;;;;5058958;28;20625;-70
2023/10/14 10:22:50;;;;;;;3.23;2.20;;;22.80;36.50;;;;;;5067286;28;20193;-70
2023/10/14 10:25:20;;;;;;;3.13;2.17;;;22.80;36.40;;;;;;5073963;28;20178;-71
2023/10/14 10:27:55;;;;;;;4.73;2.40;;;22.80;36.60;;;;;;5071397;28;20225;-67
2023/10/14 10:30:24;;;;;;;2.97;2.00;;;22.70;36.70;;;;;;5071276;28;20190;-69
2023/10/14 10:32:52;;;;;;;4.33;2.60;;;22.60;36.70;;;;;;5073821;28;20183;-70
2023/10/14 10:35:21;;;;;;;3.47;2.40;;;22.60;36.90;;;;;;5071581;28;20658;-66
2023/10/14 10:37:56;;;;;;;2.93;2.20;;;22.60;36.80;;;;;;5068753;28;20179;-72
2023/10/14 10:40:28;;;;;;;2.57;1.90;;;22.50;36.90;;;;;;5069241;28;20217;-71
2023/10/14 10:43:12;;;;;;;3.63;2.53;;;22.50;36.90;;;;;;5065109;28;20194;-73
2023/10/14 10:45:42;;;;;;;4.27;2.20;;;22.50;37.00;;;;;;5070428;28;20190;-70
2023/10/14 10:48:16;;;;;;;3.27;2.20;;;22.50;37.10;;;;;;5070268;28;20221;-69
2023/10/14 10:50:51;;;;;;;3.80;2.23;;;22.40;37.00;;;;;;5068670;28;20198;-68
2023/10/14 10:53:23;;;;;;;3.10;2.13;;;22.30;37.10;;;;;;5070077;28;20236;-72
2023/10/14 10:55:51;;;;;;;3.40;1.83;;;22.30;37.20;;;;;;5058591;28;20203;-68
2023/10/14 10:58:22;;;;;;;4.10;2.43;;;22.30;37.30;;;;;;5070932;28;20517;-71
2023/10/14 11:00:51;;;;;;;3.13;2.27;;;22.30;37.50;;;;;;5070019;28;20551;-67
2023/10/14 11:03:18;;;;;;;3.93;2.20;;;22.20;37.80;;;;;;5069915;28;20187;-70
2023/10/14 11:05:48;;;;;;;3.17;2.30;;;22.10;38.20;;;;;;5065680;28;20190;-72
2023/10/14 11:08:16;;;;;;;3.57;2.00;;;22.00;37.80;;;;;;5072985;28;20207;-71
2023/10/14 11:10:44;;;;;;;4.33;1.97;;;22.00;38.40;;;;;;5070377;28;20180;-71
2023/10/14 11:13:16;;;;;;;6.20;1.80;;;21.90;38.60;;;;;;5071355;28;20633;-67
2023/10/14 11:15:46;;;;;;;2.40;1.83;;;21.90;38.60;;;;;;5068767;28;20204;-69
2023/10/14 11:18:13;;;;;;;3.40;1.80;;;21.80;38.90;;;;;;5070371;28;20187;-69
2023/10/14 11:20:44;;;;;;;4.37;1.80;;;21.80;39.10;;;;;;5070832;28;20273;-68
2023/10/14 11:23:12;;;;;;;2.20;1.80;;;21.70;39.30;;;;;;5070658;28;20187;-73
2023/10/14 11:29:03;;;;;;;2.10;1.77;;;21.60;40.10;;;;;;5067900;28;20240;-69
2023/10/14 11:31:31;;;;;;;3.70;1.90;;;21.40;40.50;;;;;;5066286;28;20703;-72
2023/10/14 11:34:02;;;;;;;2.23;1.80;;;21.40;40.80;;;;;;5064429;28;20257;-71
2023/10/14 11:36:30;;;;;;;3.10;2.13;;;21.30;41.20;;;;;;5071059;28;20187;-68
2023/10/14 11:39:00;;;;;;;2.53;1.80;;;21.30;41.40;;;;;;5072615;28;20194;-70
2023/10/14 11:41:28;;;;;;;4.87;2.10;;;21.20;41.70;;;;;;5073102;28;20575;-70
2023/10/14 11:43:55;;;;;;;5.70;2.40;;;21.10;42.00;;;;;;5054695;28;20280;-67
2023/10/14 11:46:24;;;;;;;4.03;2.53;;;21.10;42.10;;;;;;5072926;28;20178;-69
2023/10/14 11:48:53;;;;;;;3.27;2.40;;;21.00;42.50;;;;;;5070727;28;20211;-67
2023/10/14 11:51:21;;;;;;;3.37;1.93;;;21.10;42.00;;;;;;5072872;28;20205;-68
2023/10/14 11:53:53;;;;;;;2.87;1.67;;;21.10;41.80;;;;;;5069633;28;20187;-68
2023/10/14 11:56:21;;;;;;;3.27;1.40;;;21.10;41.90;;;;;;5055706;28;20184;-70
2023/10/14 11:58:49;;;;;;;1.50;1.30;;;21.30;41.50;;;;;;5062004;28;20176;-70
2023/10/14 12:01:22;;;;;;;1.33;1.23;;;21.50;41.20;;;;;;5069110;28;20191;-69
2023/10/14 12:03:50;;;;;;;1.60;1.20;;;21.60;40.70;;;;;;5071976;28;20183;-67
2023/10/14 12:06:17;;;;;;;4.97;1.10;;;21.60;40.30;;;;;;5072855;28;20175;-67
2023/10/14 12:08:45;;;;;;;2.97;1.20;;;21.80;40.10;;;;;;5071785;28;20249;-71
2023/10/14 12:11:13;;;;;;;2.00;1.20;;;21.80;39.90;;;;;;5073020;28;20179;-72
2023/10/14 12:13:41;;;;;;;1.13;0.90;;;21.70;40.20;;;;;;5072589;28;20217;-70
2023/10/14 12:16:08;;;;;;;1.17;1.07;;;21.70;40.20;;;;;;5072474;28;20175;-72
2023/10/14 12:18:36;;;;;;;1.83;1.10;;;21.60;40.00;;;;;;5064824;28;20799;-67
2023/10/14 12:21:06;;;;;;;3.37;1.13;;;21.60;40.00;;;;;;5052571;28;20221;-75
2023/10/14 12:23:34;;;;;;;1.23;0.90;;;21.50;40.20;;;;;;5071326;28;20221;-75
2023/10/14 12:26:02;;;;;;;0.90;0.90;;;21.50;40.40;;;;;;5070348;28;20178;-67
2023/10/14 12:28:32;;;;;;;4.80;1.03;;;21.40;40.70;;;;;;5068848;28;20235;-64
2023/10/14 12:31:08;;;;;;;0.87;0.87;;;21.30;41.00;;;;;;5067012;28;20221;-70
2023/10/14 12:33:41;;;;;;;1.00;0.90;;;21.30;41.40;;;;;;5070986;28;20511;-75
2023/10/14 12:36:14;;;;;;;2.80;1.00;;;21.20;41.60;;;;;;5071316;28;20190;-73
2023/10/14 12:38:44;;;;;;;1.03;0.93;;;21.20;42.20;;;;;;5068277;28;20611;-74
2023/10/14 12:41:21;;;;;;;2.40;0.80;;;21.10;42.50;;;;;;5060099;28;20244;-67
2023/10/14 12:43:51;;;;;;;2.00;1.00;;;21.00;42.70;;;;;;5058085;28;20246;-74
2023/10/14 12:46:19;;;;;;;3.03;1.20;;;20.90;43.20;;;;;;5070322;28;20277;-68
2023/10/14 12:48:50;;;;;;;5.77;0.87;;;20.80;43.50;;;;;;5069745;28;20215;-71
2023/10/14 12:51:25;;;;;;;1.03;0.87;;;20.70;43.90;;;;;;5068204;28;20228;-72
2023/10/14 12:53:57;;;;;;;2.67;0.80;;;20.70;44.20;;;;;;5052239;28;20197;-68
2023/10/14 12:56:27;;;;;;;1.07;0.97;;;20.60;44.50;;;;;;5068610;28;20215;-70
2023/10/14 12:58:58;;;;;;;1.93;0.97;;;20.50;44.70;;;;;;5070730;28;20236;-71
2023/10/14 13:01:25;;;;;;;2.07;1.10;;;20.40;45.10;;;;;;5073574;28;20183;-74
2023/10/14 13:03:56;;;;;;;1.87;0.90;;;20.30;45.30;;;;;;5073256;28;20183;-72
2023/10/14 13:06:26;;;;;;;2.23;1.10;;;20.30;45.50;;;;;;5074239;28;20198;-72
2023/10/14 13:09:02;;;;;;;1.50;0.90;;;20.20;45.80;;;;;;5074956;28;20223;-74
2023/10/14 13:11:30;;;;;;;1.13;0.90;;;20.20;45.90;;;;;;5063641;28;20580;-68
2023/10/14 13:14:01;;;;;;;2.47;1.00;;;20.10;46.10;;;;;;5073596;28;20383;-68
2023/10/14 13:16:31;;;;;;;2.93;0.90;;;20.10;46.40;;;;;;5074157;28;20190;-70
2023/10/14 13:18:58;;;;;;;1.47;1.20;;;20.00;46.60;;;;;;5073629;28;20191;-67
2023/10/14 13:21:31;;;;;;;2.07;1.03;;;20.00;46.90;;;;;;5070187;28;20245;-73
2023/10/14 13:24:07;;;;;;;1.90;1.10;;;19.90;47.20;;;;;;5074718;28;20249;-69
2023/10/14 13:26:35;;;;;;;1.33;0.90;;;19.80;47.40;;;;;;5073757;28;20189;-70
2023/10/14 13:29:04;;;;;;;1.13;0.70;;;19.80;47.70;;;;;;5074320;28;20186;-70
2023/10/14 13:31:32;;;;;;;5.97;1.00;;;19.70;47.80;;;;;;5074312;28;20187;-67
2023/10/14 13:34:01;;;;;;;1.17;1.00;;;19.70;48.10;;;;;;5073470;28;20664;-66
2023/10/14 13:36:28;;;;;;;1.17;0.73;;;19.70;48.40;;;;;;5073914;28;20396;-71
2023/10/14 13:38:56;;;;;;;2.10;0.87;;;19.60;48.60;;;;;;5073584;28;20540;-67
2023/10/14 13:41:23;;;;;;;7.40;1.20;;;19.50;48.90;;;;;;5073865;28;20247;-72
2023/10/14 13:43:50;;;;;;;2.83;1.10;;;19.40;48.90;;;;;;5074225;28;20175;-71